Time;durP1;ratioP1;P1;durP2;ratioP2;P2;SDS_P1;SDS_P2;PMS_P1;PMS_P2;Temp;Humidity;BMP_temperature;BMP_pressure;BME280_temperature;BME280_humidity;BME280_pressure;Samples;Min_cycle;Max_cycle;Signal;HPM_P1;HPM_P2
2022/01/22 00:00:23;;;;;;;19.80;7.13;;;;;;;3.41;100.00;101857.72;5027962;28;20033;-63
2022/01/22 00:02:49;;;;;;;13.85;6.88;;;;;;;3.43;100.00;101850.72;5043258;28;20037;-64
2022/01/22 00:05:18;;;;;;;10.93;6.05;;;;;;;3.45;100.00;101849.03;5044343;28;20025;-63
2022/01/22 00:07:43;;;;;;;15.25;7.50;;;;;;;3.44;100.00;101842.00;5028661;28;20057;-64
2022/01/22 00:10:15;;;;;;;23.20;13.00;;;;;;;3.47;100.00;101839.44;5028860;28;20064;-63
2022/01/22 00:15:20;;;;;;;13.38;7.70;;;;;;;3.50;100.00;101843.03;5029366;28;20029;-63
2022/01/22 00:17:48;;;;;;;14.65;7.10;;;;;;;3.45;100.00;101841.13;5028587;28;20057;-64
2022/01/22 00:20:15;;;;;;;14.65;7.88;;;;;;;3.42;100.00;101839.34;5029817;28;20029;-64
2022/01/22 00:22:42;;;;;;;17.50;7.55;;;;;;;3.46;100.00;101838.53;5028265;28;20056;-64
2022/01/22 00:25:10;;;;;;;14.57;8.50;;;;;;;3.46;100.00;101840.31;5047297;28;20083;-63
2022/01/22 00:27:37;;;;;;;18.83;8.60;;;;;;;3.46;100.00;101840.31;5048478;28;20052;-64
2022/01/22 00:30:05;;;;;;;21.40;14.35;;;;;;;3.53;100.00;101831.69;5042497;28;20095;-64
2022/01/22 00:32:30;;;;;;;18.95;14.15;;;;;;;3.58;100.00;101837.94;5029204;28;20087;-64
2022/01/22 00:34:56;;;;;;;21.40;10.95;;;;;;;3.55;100.00;101840.53;5029595;28;20433;-64
2022/01/22 00:37:21;;;;;;;17.70;10.45;;;;;;;3.54;100.00;101844.00;5029946;28;20025;-64
2022/01/22 00:39:47;;;;;;;13.55;7.22;;;;;;;3.53;100.00;101835.22;5027626;28;20056;-64
2022/01/22 00:42:14;;;;;;;19.80;12.80;;;;;;;3.62;100.00;101842.47;5028830;28;20068;-64
2022/01/22 00:44:41;;;;;;;18.73;8.50;;;;;;;3.61;100.00;101843.28;5038264;28;20025;-64
2022/01/22 00:47:07;;;;;;;12.68;7.30;;;;;;;3.69;100.00;101840.00;5038169;28;20127;-64
2022/01/22 00:49:33;;;;;;;13.90;8.15;;;;;;;3.73;100.00;101838.34;5029125;28;20033;-65
2022/01/22 00:51:59;;;;;;;18.33;8.20;;;;;;;3.71;100.00;101838.28;5045748;28;20040;-65
2022/01/22 00:54:25;;;;;;;13.80;8.40;;;;;;;3.76;100.00;101833.13;5034024;28;20466;-65
2022/01/22 00:56:51;;;;;;;18.48;11.02;;;;;;;3.80;100.00;101837.63;5048117;28;20033;-64
2022/01/22 00:59:16;;;;;;;20.00;12.15;;;;;;;3.79;100.00;101838.47;5034693;28;20032;-65
2022/01/22 01:01:42;;;;;;;21.98;14.77;;;;;;;3.81;100.00;101839.41;5041165;28;73981;-65
2022/01/22 01:04:09;;;;;;;15.35;9.00;;;;;;;3.78;100.00;101836.69;5039027;28;20040;-65
2022/01/22 01:06:35;;;;;;;18.88;9.43;;;;;;;3.81;100.00;101835.03;5037587;28;20401;-65
2022/01/22 01:09:04;;;;;;;18.67;8.50;;;;;;;3.79;100.00;101836.72;5037278;28;20035;-65
2022/01/22 01:11:32;;;;;;;15.40;9.70;;;;;;;3.79;100.00;101838.47;5048331;28;20060;-64
2022/01/22 01:14:01;;;;;;;17.00;8.38;;;;;;;3.77;100.00;101835.81;5036315;28;20024;-64
2022/01/22 01:35:17;;;;;;;18.45;9.50;;;;;;;3.58;100.00;101824.81;5038647;28;20037;-64
2022/01/22 01:37:43;;;;;;;21.40;9.93;;;;;;;3.66;100.00;101828.50;5046950;28;20033;-64
2022/01/22 01:40:10;;;;;;;16.52;8.05;;;;;;;3.66;100.00;101833.75;5046601;28;20388;-64
2022/01/22 01:42:47;;;;;;;18.52;9.50;;;;;;;3.70;100.00;101831.28;5042506;28;20391;-64
2022/01/22 01:45:13;;;;;;;20.52;9.48;;;;;;;3.72;100.00;101836.56;5031827;28;20100;-64
2022/01/22 01:47:41;;;;;;;17.42;9.85;;;;;;;3.77;100.00;101832.31;5028511;28;20572;-65
2022/01/22 01:50:07;;;;;;;21.20;8.93;;;;;;;3.81;100.00;101834.13;5025984;28;20630;-64
2022/01/22 01:52:41;;;;;;;16.45;9.48;;;;;;;3.71;100.00;101829.50;5030566;28;20021;-64
2022/01/22 01:55:18;;;;;;;22.15;8.38;;;;;;;3.77;100.00;101842.81;5035983;28;20033;-64
2022/01/22 01:57:44;;;;;;;16.50;9.20;;;;;;;3.75;100.00;101839.25;5027147;28;20082;-64
2022/01/22 02:00:13;;;;;;;21.58;9.00;;;;;;;3.75;100.00;101834.00;5027706;28;20029;-65
2022/01/22 02:02:40;;;;;;;19.92;9.57;;;;;;;3.66;100.00;101817.97;5032177;28;20451;-65
2022/01/22 02:05:08;;;;;;;17.05;8.88;;;;;;;3.71;100.00;101830.41;5036746;28;20013;-65
2022/01/22 02:07:37;;;;;;;22.77;11.02;;;;;;;3.70;100.00;101827.75;5029403;28;20028;-64
2022/01/22 02:10:04;;;;;;;15.07;8.88;;;;;;;3.62;100.00;101811.78;5027558;28;20025;-64
2022/01/22 02:25:55;;;;;;;16.55;9.70;;;;;;;3.83;100.00;101811.38;5030784;28;20087;-64
2022/01/22 02:28:20;;;;;;;16.70;8.65;;;;;;;3.79;100.00;101809.50;5027601;28;20461;-64
2022/01/22 02:30:48;;;;;;;17.55;10.73;;;;;;;3.75;100.00;101799.78;5026767;28;20037;-64
2022/01/22 02:36:12;;;;;;;16.27;9.27;;;;;;;3.71;100.00;101800.56;5031516;28;20040;-64
2022/01/22 02:38:49;;;;;;;13.90;8.13;;;;;;;3.78;100.00;101807.75;5031842;28;20501;-64
2022/01/22 02:41:18;;;;;;;16.92;8.98;;;;;;;3.80;100.00;101800.78;5031278;28;20091;-64
2022/01/22 02:43:46;;;;;;;18.73;9.50;;;;;;;3.86;100.00;101808.81;5041163;28;20032;-64
2022/01/22 02:46:15;;;;;;;15.02;8.60;;;;;;;3.85;100.00;101807.94;5030423;28;20026;-65
2022/01/22 02:48:40;;;;;;;20.98;9.93;;;;;;;3.86;100.00;101804.44;5031042;28;20536;-65
2022/01/22 02:51:06;;;;;;;17.20;10.15;;;;;;;3.90;100.00;101808.91;5031269;28;20112;-65
2022/01/22 02:53:31;;;;;;;16.42;8.95;;;;;;;3.86;100.00;101806.19;5031386;28;20026;-64
2022/01/22 02:55:57;;;;;;;19.83;9.32;;;;;;;3.86;100.00;101811.44;5030927;28;20535;-65
2022/01/22 02:58:23;;;;;;;17.30;8.75;;;;;;;3.89;100.00;101799.25;5029945;28;20029;-65
2022/01/22 03:00:48;;;;;;;19.65;10.07;;;;;;;3.91;100.00;101807.19;5030349;28;20033;-65
2022/01/22 03:03:14;;;;;;;16.02;8.55;;;;;;;3.81;100.00;101794.66;5031137;28;20057;-65
2022/01/22 03:05:40;;;;;;;14.55;7.90;;;;;;;3.93;100.00;101805.47;5046845;28;20024;-65
2022/01/22 03:08:09;;;;;;;19.80;9.10;;;;;;;4.02;100.00;101809.19;5049201;28;20021;-65
2022/01/22 03:10:36;;;;;;;16.00;7.72;;;;;;;4.05;100.00;101813.66;5050717;28;20028;-65
2022/01/22 03:13:17;;;;;;;15.75;7.45;;;;;;;4.08;100.00;101813.72;5043938;28;20432;-65
2022/01/22 03:16:02;;;;;;;16.52;7.55;;;;;;;4.11;100.00;101813.78;5046777;28;20427;-65
2022/01/22 03:21:12;;;;;;;20.15;7.78;;;;;;;4.08;100.00;101803.19;5030914;28;20038;-65
2022/01/22 03:29:09;;;;;;;16.45;7.85;;;;;;;4.07;100.00;101809.28;5030545;28;20040;-65
2022/01/22 03:31:36;;;;;;;16.30;6.93;;;;;;;4.04;100.00;101796.06;5029910;28;20136;-65
2022/01/22 03:34:01;;;;;;;17.35;7.85;;;;;;;4.16;100.00;101806.88;5038984;28;20489;-65
2022/01/22 03:36:29;;;;;;;17.95;9.90;;;;;;;4.16;100.00;101798.97;5050620;28;20029;-65
2022/01/22 03:38:56;;;;;;;13.23;6.93;;;;;;;4.15;100.00;101802.47;5046727;28;20107;-65
2022/01/22 03:41:23;;;;;;;13.50;7.07;;;;;;;4.12;100.00;101796.25;5048548;28;20040;-65
2022/01/22 03:43:51;;;;;;;19.95;7.70;;;;;;;4.02;100.00;101787.22;5036904;28;20040;-65
2022/01/22 03:46:17;;;;;;;17.48;8.02;;;;;;;3.99;100.00;101793.34;5030482;28;20021;-65
2022/01/22 03:48:43;;;;;;;19.95;9.20;;;;;;;4.08;100.00;101803.19;5030254;28;20048;-65
2022/01/22 03:51:08;;;;;;;17.23;9.60;;;;;;;4.15;100.00;101797.22;5032441;28;20017;-65
2022/01/22 03:53:34;;;;;;;28.00;9.80;;;;;;;4.23;100.00;101811.44;5042045;28;20036;-65
2022/01/22 03:56:04;;;;;;;19.08;8.80;;;;;;;4.24;100.00;101807.91;5031668;28;20026;-64
2022/01/22 03:58:35;;;;;;;20.52;8.45;;;;;;;4.25;100.00;101807.06;5030586;28;20025;-65
2022/01/22 04:03:40;;;;;;;16.08;9.20;;;;;;;4.30;100.00;101805.41;5034871;28;20022;-65
2022/01/22 04:08:46;;;;;;;17.33;7.93;;;;;;;4.21;100.00;101794.69;5029771;28;20029;-64
2022/01/22 04:11:15;;;;;;;13.07;6.93;;;;;;;4.23;100.00;101792.09;5029439;28;20026;-65
2022/01/22 04:13:40;;;;;;;19.10;8.00;;;;;;;4.18;100.00;101794.63;5042522;28;20654;-65
2022/01/22 04:16:07;;;;;;;16.20;8.10;;;;;;;4.17;100.00;101798.09;5028954;28;20103;-65
2022/01/22 04:26:58;;;;;;;12.77;6.95;;;;;;;4.24;100.00;101778.94;5030309;28;20184;-65
2022/01/22 04:29:26;;;;;;;15.85;7.07;;;;;;;4.28;100.00;101774.66;5028598;28;20026;-65
2022/01/22 04:31:52;;;;;;;13.30;7.30;;;;;;;4.24;100.00;101768.41;5028195;28;20523;-64
2022/01/22 04:34:18;;;;;;;13.60;7.45;;;;;;;4.32;100.00;101781.72;5038707;28;20124;-65
2022/01/22 04:36:44;;;;;;;13.65;7.70;;;;;;;4.32;100.00;101784.38;5049209;28;20033;-65
2022/01/22 04:39:10;;;;;;;17.00;7.28;;;;;;;4.36;100.00;101784.47;5049184;28;20028;-65
2022/01/22 04:41:37;;;;;;;17.60;6.55;;;;;;;4.36;100.00;101779.22;5049407;28;20035;-66
2022/01/22 04:44:04;;;;;;;37.95;8.80;;;;;;;4.38;100.00;101782.78;5036244;28;20026;-65
2022/01/22 04:46:56;;;;;;;17.83;7.70;;;;;;;4.34;100.00;101782.66;5046126;28;20021;-65
2022/01/22 04:57:17;;;;;;;29.38;8.25;;;;;;;4.41;100.00;101782.84;5049012;28;20082;-65
2022/01/22 04:59:43;;;;;;;15.73;7.18;;;;;;;4.35;100.00;101760.75;5047951;28;20029;-65
2022/01/22 05:02:09;;;;;;;12.48;7.65;;;;;;;4.42;100.00;101781.06;5049364;28;20116;-65
2022/01/22 05:04:34;;;;;;;28.55;9.90;;;;;;;4.43;100.00;101785.50;5035623;28;20081;-64
2022/01/22 05:06:59;;;;;;;21.25;7.60;;;;;;;4.45;100.00;101779.38;5047918;28;20025;-65
2022/01/22 05:09:25;;;;;;;20.88;8.77;;;;;;;4.42;100.00;101784.59;5047881;28;20028;-65
2022/01/22 05:11:50;;;;;;;32.40;8.95;;;;;;;4.46;100.00;101782.91;5045179;28;20392;-65
2022/01/22 05:14:16;;;;;;;18.52;7.38;;;;;;;4.50;100.00;101783.00;5035039;28;20467;-65
2022/01/22 05:16:42;;;;;;;17.77;6.90;;;;;;;4.48;100.00;101791.75;5048807;28;20489;-65
2022/01/22 05:19:19;;;;;;;16.70;7.93;;;;;;;4.38;100.00;101780.16;5031110;28;20489;-64
2022/01/22 05:21:46;;;;;;;13.25;6.22;;;;;;;4.43;100.00;101786.38;5028322;28;20017;-65
2022/01/22 05:24:16;;;;;;;14.18;6.68;;;;;;;4.42;100.00;101789.88;5038618;28;20017;-65
2022/01/22 05:27:37;;;;;;;19.25;6.70;;;;;;;4.46;100.00;101797.00;5048714;28;20028;-65
2022/01/22 05:37:15;;;;;;;12.65;6.70;;;;;;;4.49;100.00;101812.84;5048203;28;20039;-65
2022/01/22 05:39:41;;;;;;;14.45;7.93;;;;;;;4.50;100.00;101814.63;5048517;28;20388;-65
2022/01/22 05:42:09;;;;;;;13.68;7.05;;;;;;;4.52;100.00;101817.28;5046532;28;20024;-65
2022/01/22 05:44:35;;;;;;;22.65;7.38;;;;;;;4.47;100.00;101814.56;5030342;28;20497;-65
2022/01/22 05:47:05;;;;;;;13.38;7.22;;;;;;;4.50;100.00;101816.38;5029200;28;20041;-65
2022/01/22 05:49:33;;;;;;;20.30;7.68;;;;;;;4.51;100.00;101811.16;5027248;28;20120;-66
2022/01/22 05:52:01;;;;;;;18.88;8.43;;;;;;;4.54;100.00;101821.75;5029126;28;20040;-66
2022/01/22 05:59:54;;;;;;;18.67;8.23;;;;;;;4.50;100.00;101840.97;5047358;28;19986;-69
2022/01/22 06:02:19;;;;;;;16.50;8.38;;;;;;;4.52;100.00;101844.53;5046340;28;20415;-65
2022/01/22 06:04:45;;;;;;;23.33;8.52;;;;;;;4.58;100.00;101843.78;5036294;28;20028;-65
2022/01/22 06:07:12;;;;;;;17.63;7.43;;;;;;;4.59;100.00;101841.16;5049731;28;20094;-65
2022/01/22 06:09:51;;;;;;;15.68;7.53;;;;;;;4.60;100.00;101842.94;5053157;28;20029;-65
2022/01/22 06:12:27;;;;;;;16.13;8.68;;;;;;;4.57;100.00;101842.88;5050703;28;20040;-65
2022/01/22 06:14:53;;;;;;;22.67;8.40;;;;;;;4.67;100.00;101844.84;5034517;28;20461;-65
2022/01/22 06:17:18;;;;;;;28.52;12.55;;;;;;;4.74;100.00;101846.75;5031300;28;20064;-65
2022/01/22 06:19:44;;;;;;;21.67;10.82;;;;;;;4.73;100.00;101844.06;5031809;28;20129;-65
2022/01/22 06:22:09;;;;;;;21.10;11.05;;;;;;;4.71;100.00;101846.66;5031467;28;20022;-65
2022/01/22 06:24:34;;;;;;;29.83;10.65;;;;;;;4.69;100.00;101832.59;5031178;28;20488;-65
2022/01/22 06:27:00;;;;;;;28.50;13.68;;;;;;;4.71;100.00;101838.75;5031662;28;20065;-65
2022/01/22 06:29:25;;;;;;;36.97;20.60;;;;;;;4.69;100.00;101840.50;5031253;28;20037;-65
2022/01/22 06:35:13;;;;;;;26.25;16.50;;;;;;;4.68;100.00;101841.34;4998111;28;20045;-65
2022/01/22 06:37:39;;;;;;;33.42;21.83;;;;;;;4.67;100.00;101844.84;5031963;28;20026;-65
2022/01/22 06:42:31;;;;;;;74.03;53.53;;;;;;;4.69;100.00;101845.78;5031558;28;20112;-65
2022/01/22 06:45:01;;;;;;;26.30;19.70;;;;;;;4.68;100.00;101846.59;5031814;28;20649;-65
2022/01/22 06:47:27;;;;;;;41.35;20.98;;;;;;;4.67;100.00;101852.75;5031551;28;20092;-65
2022/01/22 06:49:53;;;;;;;48.25;29.40;;;;;;;4.68;100.00;101857.16;5033617;28;20515;-65
2022/01/22 06:52:19;;;;;;;61.20;44.35;;;;;;;4.74;100.00;101848.50;5049321;28;20036;-66
2022/01/22 06:54:45;;;;;;;59.47;40.35;;;;;;;4.67;100.00;101836.94;5039848;28;20024;-64
2022/01/22 06:57:11;;;;;;;37.05;25.30;;;;;;;4.71;100.00;101822.94;5051548;28;20158;-63
2022/01/22 06:59:37;;;;;;;28.70;16.50;;;;;;;4.71;100.00;101836.13;5047077;28;20617;-63
2022/01/22 07:02:03;;;;;;;14.52;9.13;;;;;;;4.63;100.00;101836.84;5051218;28;20025;-64
2022/01/22 07:04:36;;;;;;;20.42;7.82;;;;;;;4.63;100.00;101853.53;5037597;28;20086;-64
2022/01/22 07:07:03;;;;;;;18.13;8.75;;;;;;;4.59;100.00;101849.06;5051128;28;20029;-64
2022/01/22 07:09:30;;;;;;;22.20;11.35;;;;;;;4.61;100.00;101857.00;5050233;28;20040;-66
2022/01/22 07:12:03;;;;;;;38.63;20.67;;;;;;;4.68;100.00;101867.69;5050411;28;20039;-67
2022/01/22 07:14:29;;;;;;;31.65;23.27;;;;;;;4.68;100.00;101867.69;5040082;28;20036;-63
2022/01/22 07:16:54;;;;;;;90.53;46.88;;;;;;;4.75;100.00;101879.25;5049505;28;20493;-64
2022/01/22 07:19:20;;;;;;;43.88;32.28;;;;;;;4.77;100.00;101873.16;5030092;28;20025;-64
2022/01/22 07:21:58;;;;;;;53.38;32.60;;;;;;;4.79;100.00;101884.66;5031148;28;20100;-64
2022/01/22 07:24:26;;;;;;;33.88;14.02;;;;;;;4.69;100.00;101869.50;5043990;28;20029;-64
2022/01/22 07:26:52;;;;;;;132.00;77.05;;;;;;;4.65;100.00;101880.81;5030721;28;20049;-64
2022/01/22 07:29:18;;;;;;;23.27;14.23;;;;;;;4.62;100.00;101886.03;5030481;28;20521;-64
2022/01/22 07:31:44;;;;;;;19.58;9.85;;;;;;;4.55;100.00;101884.13;5031682;28;20449;-65
2022/01/22 07:34:09;;;;;;;22.13;11.18;;;;;;;4.52;100.00;101876.16;5038402;28;20029;-64
2022/01/22 07:36:35;;;;;;;30.45;16.20;;;;;;;4.64;100.00;101886.97;5049941;28;20473;-64
2022/01/22 07:39:01;;;;;;;18.23;9.95;;;;;;;4.71;100.00;101888.84;5043027;28;20025;-65
2022/01/22 07:41:26;;;;;;;68.47;39.63;;;;;;;4.75;100.00;101895.06;5048118;28;20055;-64
2022/01/22 07:43:52;;;;;;;102.40;75.25;;;;;;;4.79;100.00;101903.09;5036809;28;20033;-64
2022/01/22 07:46:17;;;;;;;36.47;23.77;;;;;;;4.79;100.00;101892.56;5034930;28;20398;-64
2022/01/22 07:48:42;;;;;;;51.63;34.17;;;;;;;4.80;100.00;101894.31;5029497;28;20504;-64
2022/01/22 07:51:08;;;;;;;20.70;13.38;;;;;;;4.81;100.00;101906.63;5029351;28;20370;-65
2022/01/22 07:53:33;;;;;;;104.90;70.10;;;;;;;4.80;100.00;101902.22;5041624;28;20028;-65
2022/01/22 07:55:59;;;;;;;18.52;13.10;;;;;;;4.74;100.00;101896.84;5045259;28;20037;-65
2022/01/22 07:58:24;;;;;;;21.90;10.73;;;;;;;4.76;100.00;101891.59;5030272;28;20488;-65
2022/01/22 08:00:50;;;;;;;20.63;10.00;;;;;;;4.86;100.00;101897.06;5030269;28;20057;-67
2022/01/22 08:03:15;;;;;;;23.20;10.15;;;;;;;4.75;100.00;101882.78;5034423;28;20028;-63
2022/01/22 08:05:41;;;;;;;19.58;10.60;;;;;;;4.89;100.00;101893.63;5045978;28;20029;-65
2022/01/22 08:08:06;;;;;;;16.63;8.00;;;;;;;4.88;100.00;101892.72;5050011;28;20408;-65
2022/01/22 08:10:32;;;;;;;18.60;8.73;;;;;;;4.84;100.00;101890.00;5049475;28;20053;-64
2022/01/22 08:12:58;;;;;;;17.70;8.93;;;;;;;4.77;100.00;101888.09;5043559;28;20025;-64
2022/01/22 08:15:23;;;;;;;14.65;7.38;;;;;;;4.71;100.00;101898.50;5043013;28;20465;-64
2022/01/22 08:17:49;;;;;;;10.13;6.90;;;;;;;4.76;100.00;101902.13;5042585;28;20057;-64
2022/01/22 08:20:16;;;;;;;13.70;7.40;;;;;;;4.78;100.00;101901.28;5029095;28;20030;-65
2022/01/22 08:22:47;;;;;;;16.85;8.82;;;;;;;4.82;100.00;101899.63;5030000;28;20076;-64
2022/01/22 08:25:13;;;;;;;20.92;10.00;;;;;;;4.92;100.00;101897.22;5041785;28;20028;-64
2022/01/22 08:30:23;;;;;;;15.68;7.20;;;;;;;4.96;100.00;101892.84;5048510;28;20039;-65
2022/01/22 08:38:16;;;;;;;14.82;8.85;;;;;;;5.11;100.00;101901.06;5048120;28;20048;-65
2022/01/22 08:40:42;;;;;;;16.35;7.63;;;;;;;5.05;100.00;101885.16;5048604;28;20427;-65
2022/01/22 08:43:07;;;;;;;14.60;7.40;;;;;;;5.20;100.00;101902.16;5038658;28;20021;-67
2022/01/22 08:45:34;;;;;;;16.60;7.78;;;;;;;5.12;100.00;101898.47;5044118;28;20028;-63
2022/01/22 08:47:59;;;;;;;20.63;8.98;;;;;;;5.14;100.00;101895.88;5048716;28;20035;-66
2022/01/22 08:50:25;;;;;;;17.25;10.05;;;;;;;5.18;100.00;101918.81;5048771;28;20033;-65
2022/01/22 08:52:53;;;;;;;22.02;8.20;;;;;;;5.13;100.00;101915.19;5043756;28;20108;-67
2022/01/22 08:55:18;;;;;;;18.00;8.00;;;;;;;5.24;100.00;101927.72;5045094;28;20460;-65
2022/01/22 08:57:49;;;;;;;15.45;8.02;;;;;;;5.32;100.00;101918.22;5047544;28;20021;-65
2022/01/22 09:00:17;;;;;;;15.65;7.47;;;;;;;5.33;100.00;101920.00;5047802;28;20032;-65
2022/01/22 09:02:45;;;;;;;12.50;7.22;;;;;;;5.31;100.00;101910.25;5044533;28;20024;-64
2022/01/22 09:05:11;;;;;;;13.40;6.50;;;;;;;5.27;100.00;101914.59;5032879;28;20120;-65
2022/01/22 09:07:37;;;;;;;12.70;6.70;;;;;;;5.39;100.00;101935.94;5029182;28;20430;-64
2022/01/22 09:10:04;;;;;;;13.75;6.95;;;;;;;5.50;100.00;101928.22;5028506;28;20035;-64
2022/01/22 09:12:30;;;;;;;13.60;7.28;;;;;;;5.59;100.00;101938.03;5027151;28;20083;-64
2022/01/22 09:14:55;;;;;;;12.52;7.22;;;;;;;5.62;99.19;101939.00;5027868;28;20401;-64
2022/01/22 09:17:22;;;;;;;13.63;6.18;;;;;;;5.66;97.97;101937.31;5027162;28;20120;-65
2022/01/22 09:19:48;;;;;;;14.90;6.65;;;;;;;5.64;97.48;101936.38;5028602;28;20154;-66
2022/01/22 09:22:15;;;;;;;18.77;8.57;;;;;;;5.58;97.18;101926.63;5027965;28;20053;-65
2022/01/22 09:24:40;;;;;;;13.45;7.15;;;;;;;5.61;97.78;101925.78;5037835;28;20396;-65
2022/01/22 09:27:07;;;;;;;23.00;9.43;;;;;;;5.59;97.75;101930.13;5039022;28;20035;-64
2022/01/22 09:29:34;;;;;;;14.23;8.30;;;;;;;5.65;97.59;101939.03;5043755;28;20037;-66
2022/01/22 09:32:00;;;;;;;12.20;7.75;;;;;;;5.70;97.71;101923.31;5031912;28;20032;-66
2022/01/22 09:34:25;;;;;;;17.33;8.25;;;;;;;5.77;96.71;101915.50;5038729;28;20485;-64
2022/01/22 09:36:51;;;;;;;15.45;6.70;;;;;;;5.94;96.49;101926.38;5041107;28;20469;-67
2022/01/22 09:39:19;;;;;;;13.00;7.80;;;;;;;6.01;94.71;101928.28;5045691;28;20036;-65
2022/01/22 09:41:44;;;;;;;20.00;8.27;;;;;;;6.15;94.98;101932.00;5039154;28;20477;-65
2022/01/22 09:44:10;;;;;;;14.60;8.15;;;;;;;6.19;94.18;101928.56;5036721;28;20040;-65
2022/01/22 09:46:36;;;;;;;11.25;6.70;;;;;;;6.38;93.96;101931.50;5029716;28;20032;-65
2022/01/22 09:49:02;;;;;;;11.75;7.85;;;;;;;6.44;93.42;101941.28;5038154;28;20056;-64
2022/01/22 09:51:28;;;;;;;14.90;7.63;;;;;;;6.46;92.34;101947.47;5028299;28;20044;-65
2022/01/22 09:53:53;;;;;;;12.85;6.57;;;;;;;6.49;91.86;101945.75;5037302;28;20035;-64
2022/01/22 09:56:21;;;;;;;12.20;6.70;;;;;;;6.51;92.13;101943.13;5027965;28;20130;-64
2022/01/22 09:58:48;;;;;;;13.70;6.70;;;;;;;6.40;91.22;101950.91;5027859;28;20055;-64
2022/01/22 10:01:18;;;;;;;15.75;7.22;;;;;;;6.40;89.51;101944.75;5037050;28;20104;-64
2022/01/22 10:03:43;;;;;;;15.07;7.28;;;;;;;6.33;89.87;101946.41;5035408;28;20030;-65
2022/01/22 10:06:16;;;;;;;13.02;6.93;;;;;;;6.26;89.75;101938.38;5039448;28;20021;-63
2022/01/22 10:08:41;;;;;;;11.47;6.83;;;;;;;6.30;90.55;101945.47;5039094;28;20178;-65
2022/01/22 10:11:17;;;;;;;14.48;8.82;;;;;;;6.44;90.83;101947.44;5036558;28;20700;-66
2022/01/22 10:13:46;;;;;;;15.75;7.90;;;;;;;6.69;90.65;101941.63;5038688;28;20033;-66
2022/01/22 10:16:22;;;;;;;16.95;8.63;;;;;;;6.85;90.45;101948.03;5031698;28;20025;-64
2022/01/22 10:19:15;;;;;;;20.23;8.73;;;;;;;6.78;88.13;101954.09;5032677;28;20033;-65
2022/01/22 10:21:46;;;;;;;17.80;8.85;;;;;;;6.67;87.37;101955.72;5030906;28;20501;-65
2022/01/22 10:27:30;;;;;;;19.33;10.18;;;;;;;6.71;87.58;101941.66;5015456;28;20663;-65
2022/01/22 10:30:06;;;;;;;22.13;9.20;;;;;;;6.74;86.20;101941.69;5026839;28;20484;-65
2022/01/22 10:35:16;;;;;;;15.93;8.40;;;;;;;6.76;86.51;101950.53;5039798;28;20025;-65
2022/01/22 10:37:54;;;;;;;15.80;8.52;;;;;;;6.73;86.12;101945.22;5047653;28;20078;-65
2022/01/22 10:40:26;;;;;;;18.42;8.43;;;;;;;6.79;87.32;101945.28;5043433;28;20057;-65
2022/01/22 10:42:52;;;;;;;19.30;8.65;;;;;;;6.86;88.08;101938.31;5038014;28;20101;-64
2022/01/22 10:45:24;;;;;;;12.45;8.15;;;;;;;6.97;87.73;101940.25;5034974;28;20017;-65
2022/01/22 10:47:50;;;;;;;15.70;7.60;;;;;;;6.90;84.39;101933.13;5041393;28;20036;-66
2022/01/22 10:50:23;;;;;;;16.90;8.30;;;;;;;6.97;84.39;101940.25;5024930;28;20017;-66
2022/01/22 10:52:53;;;;;;;15.30;7.97;;;;;;;7.02;84.55;101935.03;5025657;28;20033;-64
2022/01/22 10:55:19;;;;;;;16.42;8.25;;;;;;;7.05;85.15;101941.22;5035685;28;20069;-65
2022/01/22 10:58:04;;;;;;;12.57;8.13;;;;;;;7.06;85.04;101934.19;5033021;28;20060;-64
2022/01/22 11:00:29;;;;;;;20.50;9.73;;;;;;;6.99;85.13;101938.50;5031930;28;20032;-63
2022/01/22 11:02:55;;;;;;;20.80;9.90;;;;;;;6.92;83.63;101936.66;5044888;28;20037;-64
2022/01/22 11:05:38;;;;;;;19.50;9.40;;;;;;;7.00;84.36;101929.69;5044186;28;20108;-64
2022/01/22 11:08:14;;;;;;;23.23;10.57;;;;;;;7.01;83.27;101925.28;5033516;28;20028;-64
2022/01/22 11:10:44;;;;;;;23.13;9.88;;;;;;;7.09;84.21;101929.81;5029495;28;20087;-64
2022/01/22 11:13:09;;;;;;;25.17;11.93;;;;;;;7.24;84.31;101924.72;5040176;28;20032;-65
2022/01/22 11:15:35;;;;;;;18.48;10.90;;;;;;;7.17;83.06;101921.97;5030251;28;20029;-64
2022/01/22 11:18:02;;;;;;;18.00;9.18;;;;;;;7.14;82.46;101925.47;5028411;28;20453;-64
2022/01/22 11:20:31;;;;;;;195.05;64.72;;;;;;;7.08;81.54;101922.75;5029357;28;20390;-64
2022/01/22 11:22:58;;;;;;;51.88;22.98;;;;;;;7.21;82.40;101918.50;5038940;28;20025;-64
2022/01/22 11:25:25;;;;;;;19.60;10.00;;;;;;;7.27;83.17;101911.50;5034762;28;20147;-66
2022/01/22 11:27:51;;;;;;;16.80;8.82;;;;;;;7.30;82.32;101919.47;5036859;28;20126;-64
2022/01/22 11:30:17;;;;;;;19.80;8.57;;;;;;;7.34;81.99;101921.28;5029528;28;20040;-64
2022/01/22 11:32:48;;;;;;;30.08;15.80;;;;;;;7.39;82.27;101914.28;5039438;28;20025;-63
2022/01/22 11:35:19;;;;;;;15.55;8.70;;;;;;;7.37;81.49;101912.47;5040820;28;20033;-63
2022/01/22 11:38:10;;;;;;;18.08;9.60;;;;;;;7.17;82.88;101866.38;5032399;28;20029;-63
2022/01/22 11:40:36;;;;;;;14.98;8.15;;;;;;;7.40;83.79;101889.56;5031175;28;20028;-69
2022/01/22 11:43:10;;;;;;;14.63;7.85;;;;;;;7.45;83.64;101914.34;5042371;28;21197;-64
2022/01/22 11:45:44;;;;;;;17.23;9.57;;;;;;;7.42;84.19;101908.13;5037003;28;20147;-64
2022/01/22 11:48:17;;;;;;;16.10;8.55;;;;;;;7.30;82.74;101905.34;5039511;28;20021;-63
2022/01/22 11:50:47;;;;;;;16.67;8.85;;;;;;;7.23;83.90;101912.31;5049179;28;20033;-64
2022/01/22 11:53:33;;;;;;;17.02;7.50;;;;;;;7.20;83.62;101912.28;5041361;28;20060;-64
2022/01/22 11:56:10;;;;;;;12.73;7.35;;;;;;;7.19;83.57;101907.88;5042210;28;20040;-64
2022/01/22 11:59:02;;;;;;;13.30;7.80;;;;;;;7.15;83.64;101906.06;5030592;28;20029;-64
2022/01/22 12:01:56;;;;;;;13.93;7.68;;;;;;;7.22;83.83;101913.22;5030610;28;20424;-63
2022/01/22 12:04:27;;;;;;;12.95;7.88;;;;;;;7.17;83.84;101912.25;5030775;28;20117;-63
2022/01/22 12:07:02;;;;;;;17.90;8.60;;;;;;;7.13;83.15;101921.06;5029947;28;20469;-64
2022/01/22 12:09:31;;;;;;;13.27;7.63;;;;;;;7.02;83.53;101909.44;5036874;28;20029;-63
2022/01/22 12:14:54;;;;;;;16.23;8.25;;;;;;;7.13;83.98;101905.19;5034970;28;20052;-63
2022/01/22 12:17:40;;;;;;;18.65;9.63;;;;;;;7.17;84.95;101906.06;5034806;28;20042;-63
2022/01/22 12:23:11;;;;;;;15.35;8.30;;;;;;;7.28;84.44;101900.03;5037785;28;20029;-65
2022/01/22 12:25:39;;;;;;;19.38;8.90;;;;;;;7.09;84.25;101855.72;5048461;28;20032;-64
2022/01/22 12:28:08;;;;;;;14.15;7.93;;;;;;;7.27;83.82;101897.38;5041785;28;20059;-64
2022/01/22 12:30:43;;;;;;;16.42;8.73;;;;;;;7.28;83.80;101899.16;5031788;28;20420;-64
2022/01/22 12:33:13;;;;;;;17.40;9.25;;;;;;;7.31;83.77;101894.81;5030400;28;20076;-63
2022/01/22 12:35:47;;;;;;;17.02;9.85;;;;;;;7.27;83.70;101898.28;5036611;28;20344;-64
2022/01/22 12:38:29;;;;;;;18.20;8.88;;;;;;;7.35;84.26;101895.69;5046094;28;20037;-64
2022/01/22 12:44:12;;;;;;;16.95;9.82;;;;;;;7.42;82.84;101882.53;5042840;28;20036;-64
2022/01/22 12:46:38;;;;;;;21.23;9.27;;;;;;;7.44;82.49;101879.91;5036627;28;20059;-64
2022/01/22 12:49:05;;;;;;;20.30;11.13;;;;;;;7.56;83.28;101888.84;5042173;28;20033;-63
2022/01/22 12:51:31;;;;;;;18.38;10.60;;;;;;;7.60;83.66;101876.53;5031251;28;20116;-64
2022/01/22 12:53:57;;;;;;;15.80;9.80;;;;;;;7.68;83.32;101881.03;5032144;28;20033;-62
2022/01/22 12:59:08;;;;;;;18.48;10.77;;;;;;;7.78;82.60;101882.88;5035771;28;20171;-63
2022/01/22 13:01:42;;;;;;;21.35;10.57;;;;;;;7.74;82.46;101881.06;5031922;28;20041;-63
2022/01/22 13:04:09;;;;;;;21.38;11.50;;;;;;;7.74;82.67;101875.78;5041925;28;20479;-64
2022/01/22 13:06:49;;;;;;;19.20;10.75;;;;;;;7.79;82.95;101868.75;5043430;28;20019;-64
2022/01/22 13:09:15;;;;;;;23.95;10.02;;;;;;;7.76;81.39;101878.44;5036088;28;20458;-64
2022/01/22 13:11:49;;;;;;;19.23;9.95;;;;;;;7.70;81.63;101873.09;5046237;28;20108;-64
2022/01/22 13:14:26;;;;;;;19.17;8.75;;;;;;;7.79;82.59;101878.47;5034079;28;20036;-64